Time;durP1;ratioP1;P1;durP2;ratioP2;P2;SDS_P1;SDS_P2;PMS_P1;PMS_P2;Temp;Humidity;BMP_temperature;BMP_pressure;BME280_temperature;BME280_humidity;BME280_pressure;Samples;Min_cycle;Max_cycle;Signal;HPM_P1;HPM_P2
2023/07/14 00:02:04;;;;;;;28.58;25.65;;;22.30;99.90;;;;;;5248014;28;20025;-71
2023/07/14 00:04:41;;;;;;;32.38;27.38;;;22.40;99.90;;;;;;5248191;28;20507;-71
2023/07/14 00:07:13;;;;;;;33.67;28.02;;;22.20;99.90;;;;;;5249458;28;20428;-70
2023/07/14 00:09:44;;;;;;;31.00;27.35;;;22.20;99.90;;;;;;5249420;28;20035;-71
2023/07/14 00:12:14;;;;;;;29.67;26.58;;;22.20;99.90;;;;;;5249415;28;20048;-71
2023/07/14 00:14:45;;;;;;;34.55;27.08;;;22.30;99.90;;;;;;5249521;28;20016;-71
2023/07/14 00:17:16;;;;;;;30.83;27.73;;;22.40;99.90;;;;;;5249171;28;20059;-71
2023/07/14 00:19:47;;;;;;;34.40;29.75;;;22.00;99.90;;;;;;5249226;28;20027;-71
2023/07/14 00:22:18;;;;;;;37.13;29.67;;;22.00;99.90;;;;;;5249158;28;20024;-70
2023/07/14 00:24:48;;;;;;;33.08;29.52;;;22.10;99.90;;;;;;5249094;28;20024;-71
2023/07/14 00:27:21;;;;;;;35.60;30.92;;;22.10;99.90;;;;;;5248921;28;20020;-71
2023/07/14 00:29:52;;;;;;;34.22;29.10;;;22.00;99.90;;;;;;5248949;28;20021;-71
2023/07/14 00:32:23;;;;;;;33.83;29.60;;;21.90;99.90;;;;;;5248682;28;20059;-71
2023/07/14 00:34:54;;;;;;;35.22;31.45;;;21.90;99.90;;;;;;5248928;28;20025;-71
2023/07/14 00:37:25;;;;;;;42.35;32.55;;;21.90;99.90;;;;;;5248773;28;20506;-71
2023/07/14 00:39:56;;;;;;;35.22;30.35;;;21.90;99.90;;;;;;5248677;28;20020;-71
2023/07/14 00:42:26;;;;;;;35.95;30.83;;;21.90;99.90;;;;;;5248636;28;20078;-71
2023/07/14 00:44:57;;;;;;;33.90;28.63;;;21.90;99.90;;;;;;5248374;28;20029;-71
2023/07/14 00:47:30;;;;;;;32.78;28.20;;;22.10;99.90;;;;;;5248543;28;20090;-71
2023/07/14 00:50:02;;;;;;;33.83;28.35;;;22.10;99.90;;;;;;5248427;28;20028;-71
2023/07/14 00:52:39;;;;;;;33.85;28.77;;;22.00;99.90;;;;;;5248393;28;20484;-71
2023/07/14 00:55:48;;;;;;;30.95;27.70;;;22.00;99.90;;;;;;5248313;28;20074;-71
2023/07/14 00:58:22;;;;;;;35.35;29.52;;;22.10;99.90;;;;;;5248210;28;20081;-71
2023/07/14 01:01:24;;;;;;;34.40;30.77;;;21.90;99.90;;;;;;5248056;28;20036;-71
2023/07/14 01:03:56;;;;;;;32.15;28.75;;;21.70;99.90;;;;;;5247323;28;20098;-70
2023/07/14 01:06:38;;;;;;;32.60;27.90;;;21.80;99.90;;;;;;5247867;28;20162;-71
2023/07/14 01:09:12;;;;;;;31.38;27.88;;;21.80;99.90;;;;;;5247931;28;20024;-71
2023/07/14 01:11:52;;;;;;;31.98;28.77;;;21.80;99.90;;;;;;5247851;28;20545;-71
2023/07/14 01:14:31;;;;;;;29.75;26.92;;;21.80;99.90;;;;;;5248007;28;20021;-71
2023/07/14 01:17:03;;;;;;;;;;;21.80;99.90;;;;;;5248352;28;20044;-71
2023/07/14 01:19:43;;;;;;;29.65;26.55;;;21.90;99.90;;;;;;5248050;28;19904;-71
2023/07/14 01:22:20;;;;;;;45.63;27.90;;;21.80;99.90;;;;;;5247965;28;20133;-71
2023/07/14 01:25:06;;;;;;;86.30;35.17;;;21.80;99.90;;;;;;5247825;28;20107;-71
2023/07/14 01:27:36;;;;;;;28.70;25.20;;;21.90;99.90;;;;;;5247985;28;20020;-71
2023/07/14 01:30:08;;;;;;;28.42;25.67;;;21.80;99.90;;;;;;5248100;28;20029;-71
2023/07/14 01:32:42;;;;;;;29.95;26.73;;;21.80;99.90;;;;;;5247703;28;20071;-71
2023/07/14 01:35:14;;;;;;;28.83;25.65;;;21.70;99.90;;;;;;5246529;28;20480;-71
2023/07/14 01:37:45;;;;;;;29.42;26.38;;;21.80;99.90;;;;;;5247598;28;20039;-71
2023/07/14 01:40:18;;;;;;;28.13;25.08;;;21.50;99.90;;;;;;5247696;28;20077;-71
2023/07/14 01:43:01;;;;;;;28.13;25.10;;;21.50;99.90;;;;;;5247541;28;20026;-71
2023/07/14 01:45:42;;;;;;;26.67;23.98;;;21.40;99.90;;;;;;5247620;28;20081;-71
2023/07/14 01:48:20;;;;;;;26.77;23.85;;;21.50;99.90;;;;;;5247342;28;20025;-70
2023/07/14 01:50:56;;;;;;;26.55;23.85;;;21.60;99.90;;;;;;5247396;28;20032;-70
2023/07/14 01:53:53;;;;;;;27.30;24.63;;;21.40;99.90;;;;;;5247444;28;20476;-70
2023/07/14 01:56:26;;;;;;;27.30;24.52;;;21.40;99.90;;;;;;5223793;28;20028;-71
2023/07/14 01:59:19;;;;;;;27.00;24.10;;;21.40;99.90;;;;;;5247229;28;20346;-71
2023/07/14 02:01:52;;;;;;;26.85;24.15;;;21.40;99.90;;;;;;5247182;28;20039;-71
2023/07/14 02:04:29;;;;;;;27.83;25.05;;;21.40;99.90;;;;;;5247378;28;20043;-70
2023/07/14 02:07:03;;;;;;;27.13;24.38;;;21.40;99.90;;;;;;5247092;28;20028;-71
2023/07/14 02:09:34;;;;;;;26.17;23.70;;;21.40;99.90;;;;;;5247035;28;20028;-71
2023/07/14 02:12:06;;;;;;;25.40;22.88;;;21.30;99.90;;;;;;5247018;28;20039;-71
2023/07/14 02:14:54;;;;;;;26.92;23.60;;;21.30;99.90;;;;;;5247174;28;20025;-71
2023/07/14 02:17:30;;;;;;;24.95;22.35;;;21.30;99.90;;;;;;5246419;28;20028;-71
2023/07/14 02:20:10;;;;;;;26.80;24.08;;;21.50;99.90;;;;;;5247113;28;20103;-71
2023/07/14 02:22:41;;;;;;;26.15;23.45;;;21.50;99.90;;;;;;5247194;28;20590;-71
2023/07/14 02:25:15;;;;;;;27.27;24.48;;;21.50;99.90;;;;;;5246991;28;20025;-70
2023/07/14 02:27:46;;;;;;;28.15;25.13;;;21.20;99.90;;;;;;5246906;28;20104;-71
2023/07/14 02:30:19;;;;;;;27.13;24.27;;;21.30;99.90;;;;;;5247010;28;20583;-71
2023/07/14 02:33:14;;;;;;;25.13;22.52;;;21.20;99.90;;;;;;5246710;28;20051;-71
2023/07/14 02:36:02;;;;;;;25.45;22.95;;;21.30;99.90;;;;;;5246962;28;20111;-71
2023/07/14 02:38:33;;;;;;;27.75;24.33;;;21.30;99.90;;;;;;5246985;28;20032;-70
2023/07/14 02:41:19;;;;;;;25.48;23.08;;;21.20;99.90;;;;;;5246803;28;20101;-70
2023/07/14 02:43:54;;;;;;;26.08;23.45;;;21.20;99.90;;;;;;5246833;28;20511;-71
2023/07/14 02:46:43;;;;;;;29.55;23.95;;;21.20;99.90;;;;;;5246796;28;20032;-71
2023/07/14 02:49:15;;;;;;;25.05;22.45;;;21.20;99.90;;;;;;5246703;28;20090;-71
2023/07/14 02:51:46;;;;;;;30.33;23.77;;;21.30;99.90;;;;;;5246576;28;20037;-71
2023/07/14 02:54:16;;;;;;;25.02;22.42;;;21.20;99.90;;;;;;5246903;28;20024;-71
2023/07/14 02:56:47;;;;;;;26.48;23.70;;;21.40;99.90;;;;;;5247045;28;20099;-71
2023/07/14 02:59:18;;;;;;;25.90;23.30;;;21.30;99.90;;;;;;5246769;28;20472;-71
2023/07/14 03:01:49;;;;;;;25.27;22.65;;;21.20;99.90;;;;;;5246519;28;20035;-71
2023/07/14 03:04:21;;;;;;;24.92;22.38;;;21.20;99.90;;;;;;5246734;28;20036;-70
2023/07/14 03:06:52;;;;;;;24.70;22.25;;;21.40;99.90;;;;;;5246725;28;20029;-71
2023/07/14 03:09:22;;;;;;;26.38;23.73;;;21.30;99.90;;;;;;5246588;28;20037;-72
2023/07/14 03:11:53;;;;;;;26.75;23.85;;;21.20;99.90;;;;;;5246659;28;20120;-71
2023/07/14 03:14:24;;;;;;;26.17;23.30;;;21.30;99.90;;;;;;5246586;28;20056;-71
2023/07/14 03:16:55;;;;;;;26.10;23.38;;;21.30;99.90;;;;;;5246517;28;20035;-70
2023/07/14 03:19:25;;;;;;;25.67;23.05;;;21.30;99.90;;;;;;5245330;28;20045;-71
2023/07/14 03:21:57;;;;;;;24.90;22.33;;;21.40;99.90;;;;;;5246601;28;20162;-71
2023/07/14 03:24:27;;;;;;;27.27;24.33;;;21.50;99.90;;;;;;5246404;28;20020;-71
2023/07/14 03:26:58;;;;;;;25.38;22.77;;;21.50;99.90;;;;;;5246354;28;20372;-71
2023/07/14 03:29:29;;;;;;;25.92;23.40;;;21.60;99.90;;;;;;5248529;28;20020;-71
2023/07/14 03:32:00;;;;;;;25.42;22.92;;;21.60;99.90;;;;;;5250028;28;20036;-70
2023/07/14 03:34:31;;;;;;;24.42;22.10;;;21.70;99.90;;;;;;5249942;28;20049;-71
2023/07/14 03:37:01;;;;;;;24.95;22.42;;;21.80;99.90;;;;;;5250003;28;20028;-71
2023/07/14 03:39:32;;;;;;;25.45;22.70;;;21.80;99.90;;;;;;5249811;28;20112;-72
2023/07/14 03:42:03;;;;;;;27.38;24.25;;;21.80;99.90;;;;;;5249932;28;20028;-71
2023/07/14 03:44:34;;;;;;;25.35;22.77;;;21.80;99.90;;;;;;5249750;28;20020;-70
2023/07/14 03:47:05;;;;;;;23.52;21.30;;;22.00;99.90;;;;;;5249768;28;20086;-71
2023/07/14 03:49:36;;;;;;;26.90;23.15;;;22.10;99.90;;;;;;5249669;28;20086;-71
2023/07/14 03:52:07;;;;;;;26.50;23.80;;;22.00;99.90;;;;;;5249520;28;20067;-70
2023/07/14 03:54:38;;;;;;;27.05;24.17;;;22.00;99.90;;;;;;5249603;28;20033;-70
2023/07/14 03:57:08;;;;;;;26.00;23.17;;;22.00;99.90;;;;;;5249412;28;20024;-71
2023/07/14 03:59:39;;;;;;;27.73;24.92;;;22.10;99.90;;;;;;5249590;28;20074;-71
2023/07/14 04:02:10;;;;;;;31.33;25.52;;;22.10;99.90;;;;;;5248998;28;20119;-71
2023/07/14 04:04:41;;;;;;;25.60;23.00;;;22.20;99.90;;;;;;5249348;28;20040;-70
2023/07/14 04:07:12;;;;;;;28.33;23.38;;;22.20;99.90;;;;;;5249294;28;20029;-71
2023/07/14 04:09:42;;;;;;;25.50;22.77;;;22.40;99.90;;;;;;5249217;28;20112;-71
2023/07/14 04:12:13;;;;;;;25.73;23.00;;;22.50;99.90;;;;;;5249252;28;20071;-71
2023/07/14 04:14:44;;;;;;;25.23;22.67;;;22.60;99.90;;;;;;5249441;28;20384;-70
2023/07/14 04:17:15;;;;;;;23.88;21.35;;;22.60;99.90;;;;;;5249201;28;20372;-71
2023/07/14 04:19:45;;;;;;;26.83;21.77;;;22.70;99.90;;;;;;5249313;28;20032;-71
2023/07/14 04:22:18;;;;;;;22.95;20.52;;;22.90;99.90;;;;;;5249552;28;20074;-71
2023/07/14 04:24:49;;;;;;;24.58;22.17;;;23.00;99.90;;;;;;5249388;28;20020;-70
2023/07/14 04:27:20;;;;;;;23.65;21.23;;;23.10;99.90;;;;;;5249017;28;20376;-70
2023/07/14 04:29:50;;;;;;;24.08;21.55;;;23.20;99.90;;;;;;5248967;28;20461;-71
2023/07/14 04:32:21;;;;;;;25.35;21.73;;;23.20;99.90;;;;;;5248880;28;20560;-70
2023/07/14 04:34:52;;;;;;;23.35;20.83;;;23.30;99.90;;;;;;5248898;28;20384;-71
2023/07/14 04:37:23;;;;;;;23.65;20.90;;;23.40;99.90;;;;;;5248771;28;20063;-71
2023/07/14 04:39:54;;;;;;;22.95;20.55;;;23.50;99.90;;;;;;5248130;28;20448;-71
2023/07/14 04:42:25;;;;;;;26.08;21.95;;;23.60;99.90;;;;;;5248678;28;20032;-71
2023/07/14 04:44:55;;;;;;;23.80;21.38;;;23.80;99.90;;;;;;5249214;28;20017;-70
2023/07/14 04:47:26;;;;;;;27.10;21.27;;;23.90;99.90;;;;;;5248513;28;20394;-71
2023/07/14 04:49:57;;;;;;;23.45;21.05;;;24.20;99.90;;;;;;5248591;28;20013;-70
2023/07/14 04:52:29;;;;;;;23.67;21.17;;;24.20;99.90;;;;;;5248312;28;20044;-71
2023/07/14 04:55:00;;;;;;;26.00;22.20;;;24.30;99.90;;;;;;5248451;28;20388;-71
2023/07/14 04:57:30;;;;;;;24.40;21.77;;;24.20;99.90;;;;;;5248401;28;20043;-71
2023/07/14 05:00:01;;;;;;;24.73;22.45;;;24.50;99.90;;;;;;5248369;28;20020;-71
2023/07/14 05:02:32;;;;;;;25.30;22.83;;;24.70;99.90;;;;;;5248011;28;20045;-71
2023/07/14 05:05:17;;;;;;;27.35;24.05;;;24.80;99.90;;;;;;5248165;28;20040;-71
2023/07/14 05:07:50;;;;;;;26.65;23.95;;;25.00;99.90;;;;;;5248089;28;20048;-70
2023/07/14 05:10:23;;;;;;;32.05;26.75;;;25.10;99.90;;;;;;5248150;28;20025;-71
2023/07/14 05:12:56;;;;;;;28.85;25.73;;;25.20;99.90;;;;;;5247842;28;20036;-71
2023/07/14 05:15:27;;;;;;;26.17;23.52;;;25.20;99.90;;;;;;5248027;28;20021;-71
2023/07/14 05:17:58;;;;;;;25.55;22.90;;;25.30;99.90;;;;;;5248038;28;20043;-71
2023/07/14 05:20:29;;;;;;;27.33;24.73;;;25.40;99.90;;;;;;5247883;28;20364;-71
2023/07/14 05:23:00;;;;;;;26.98;24.27;;;25.60;99.90;;;;;;5247831;28;20020;-71
2023/07/14 05:25:31;;;;;;;27.80;23.45;;;25.80;99.90;;;;;;5247800;28;20068;-71
2023/07/14 05:28:02;;;;;;;26.33;21.45;;;25.90;99.90;;;;;;5247637;28;20115;-71
2023/07/14 05:30:33;;;;;;;24.55;21.23;;;25.90;99.90;;;;;;5247687;28;20021;-71
2023/07/14 05:33:04;;;;;;;24.25;21.75;;;26.10;99.90;;;;;;5247314;28;20393;-71
2023/07/14 05:35:36;;;;;;;34.95;21.77;;;26.30;99.90;;;;;;5247762;28;20033;-71
2023/07/14 05:38:07;;;;;;;43.60;22.27;;;26.50;99.90;;;;;;5247568;28;20046;-71
2023/07/14 05:40:37;;;;;;;30.83;23.27;;;26.60;99.90;;;;;;5247420;28;20020;-71
2023/07/14 05:43:08;;;;;;;33.28;22.80;;;26.70;99.90;;;;;;5246355;28;20404;-70
2023/07/14 05:45:39;;;;;;;23.60;21.08;;;26.70;99.90;;;;;;5247452;28;20025;-71
2023/07/14 05:48:10;;;;;;;29.20;21.48;;;26.80;99.90;;;;;;5247411;28;20480;-71
2023/07/14 05:50:41;;;;;;;24.02;21.63;;;27.10;99.90;;;;;;5247395;28;20060;-71
2023/07/14 05:53:14;;;;;;;26.95;20.42;;;27.20;99.90;;;;;;5247048;28;20036;-71
2023/07/14 05:55:46;;;;;;;25.33;20.20;;;27.30;99.90;;;;;;5247570;28;20106;-71
2023/07/14 05:58:17;;;;;;;24.45;21.88;;;27.50;99.90;;;;;;5247384;28;20032;-71
2023/07/14 06:00:48;;;;;;;22.77;20.38;;;27.60;99.90;;;;;;5247212;28;20464;-71
2023/07/14 06:03:19;;;;;;;22.95;20.52;;;27.80;99.90;;;;;;5247052;28;20149;-71
2023/07/14 06:05:49;;;;;;;32.25;21.02;;;28.00;99.90;;;;;;5247215;28;20048;-71
2023/07/14 06:08:20;;;;;;;30.25;20.20;;;28.20;99.90;;;;;;5247229;28;20408;-71
2023/07/14 06:10:51;;;;;;;25.10;21.27;;;28.40;99.90;;;;;;5247104;28;20050;-71
2023/07/14 06:13:22;;;;;;;26.52;20.05;;;28.40;99.90;;;;;;5247010;28;20032;-71
2023/07/14 06:15:54;;;;;;;29.42;19.88;;;28.70;99.90;;;;;;5247205;28;20032;-71
2023/07/14 06:18:25;;;;;;;26.63;21.02;;;28.90;99.90;;;;;;5228480;28;20045;-71
2023/07/14 06:20:57;;;;;;;25.85;21.13;;;28.90;99.90;;;;;;5247161;28;20029;-71
2023/07/14 06:23:28;;;;;;;26.08;21.00;;;29.00;99.90;;;;;;5247082;28;20029;-72
2023/07/14 06:25:59;;;;;;;28.10;21.60;;;29.10;99.90;;;;;;5246846;28;20388;-71
2023/07/14 06:28:30;;;;;;;26.25;20.52;;;29.20;99.90;;;;;;5246946;28;20107;-71
2023/07/14 06:31:06;;;;;;;32.50;19.50;;;29.40;99.90;;;;;;5247139;28;20032;-71
2023/07/14 06:33:36;;;;;;;25.98;20.50;;;29.50;99.90;;;;;;5246841;28;20064;-70
2023/07/14 06:36:07;;;;;;;24.92;21.10;;;29.70;99.90;;;;;;5246909;28;20060;-70
2023/07/14 06:38:39;;;;;;;23.95;20.10;;;29.70;99.90;;;;;;5246822;28;20028;-71
2023/07/14 06:41:09;;;;;;;26.17;20.00;;;29.80;99.90;;;;;;5246914;28;20033;-70
2023/07/14 06:43:40;;;;;;;24.63;19.33;;;30.00;99.90;;;;;;5246809;28;20093;-71
2023/07/14 06:46:11;;;;;;;25.63;19.75;;;30.00;99.90;;;;;;5246720;28;20024;-70
2023/07/14 06:48:42;;;;;;;23.30;19.35;;;30.20;99.90;;;;;;5246537;28;20112;-71
2023/07/14 06:51:13;;;;;;;23.73;18.92;;;30.30;99.90;;;;;;5246592;28;20029;-70
2023/07/14 06:53:45;;;;;;;25.75;18.80;;;30.40;99.90;;;;;;5246701;28;20024;-71
2023/07/14 06:56:16;;;;;;;23.40;18.23;;;30.40;99.90;;;;;;5245407;28;20534;-70
2023/07/14 06:58:47;;;;;;;22.90;18.65;;;30.60;99.90;;;;;;5246701;28;20029;-71
2023/07/14 07:01:21;;;;;;;24.08;19.20;;;30.60;99.90;;;;;;5246555;28;20086;-71
2023/07/14 07:03:52;;;;;;;24.10;18.50;;;30.70;99.90;;;;;;5249167;28;20439;-70
2023/07/14 07:06:23;;;;;;;20.27;17.17;;;30.80;99.90;;;;;;5250641;28;20032;-70
2023/07/14 07:08:53;;;;;;;24.23;17.45;;;31.00;99.90;;;;;;5250632;28;20044;-71
2023/07/14 07:11:24;;;;;;;24.88;18.33;;;31.00;99.90;;;;;;5250656;28;20024;-71
2023/07/14 07:13:55;;;;;;;19.80;17.70;;;31.20;99.90;;;;;;5250317;28;20025;-71
2023/07/14 07:16:26;;;;;;;23.65;17.23;;;31.20;99.90;;;;;;5250569;28;20036;-71
2023/07/14 07:18:57;;;;;;;20.13;18.13;;;31.30;99.90;;;;;;5250812;28;20021;-70
2023/07/14 07:21:27;;;;;;;19.65;17.42;;;31.30;99.90;;;;;;5250290;28;20650;-71
2023/07/14 07:23:58;;;;;;;22.40;18.58;;;31.40;99.90;;;;;;5250573;28;20119;-71
2023/07/14 07:26:29;;;;;;;22.85;17.25;;;31.60;99.90;;;;;;5250156;28;20425;-71
2023/07/14 07:29:00;;;;;;;19.67;17.40;;;31.80;99.90;;;;;;5250306;28;20025;-71
2023/07/14 07:31:31;;;;;;;22.90;17.20;;;32.00;99.90;;;;;;5249919;28;20024;-71
2023/07/14 07:34:03;;;;;;;22.35;18.85;;;32.00;99.90;;;;;;5250159;28;20036;-71
2023/07/14 07:36:34;;;;;;;21.13;18.30;;;32.30;99.90;;;;;;5250115;28;20059;-71
2023/07/14 07:39:05;;;;;;;21.95;18.98;;;32.20;99.90;;;;;;5250164;28;20025;-71
2023/07/14 07:41:36;;;;;;;20.75;18.55;;;32.40;99.90;;;;;;5249919;28;20111;-71
2023/07/14 07:44:08;;;;;;;19.90;16.55;;;32.40;99.90;;;;;;5249954;28;20107;-71
2023/07/14 07:46:39;;;;;;;20.30;18.08;;;32.50;99.90;;;;;;5249868;28;20099;-71
2023/07/14 07:49:10;;;;;;;20.65;18.50;;;32.60;99.90;;;;;;5249775;28;20107;-70
2023/07/14 07:51:41;;;;;;;19.13;17.23;;;32.40;99.90;;;;;;5249773;28;20028;-71
2023/07/14 07:54:11;;;;;;;19.60;16.38;;;32.70;99.90;;;;;;5249785;28;20111;-71
2023/07/14 07:56:43;;;;;;;21.20;19.02;;;32.70;99.90;;;;;;5249536;28;20008;-71
2023/07/14 07:59:16;;;;;;;20.77;17.45;;;32.90;99.90;;;;;;5249646;28;20119;-71
2023/07/14 08:01:47;;;;;;;17.50;14.65;;;33.00;99.90;;;;;;5249389;28;20108;-71
2023/07/14 08:04:18;;;;;;;20.70;13.73;;;33.30;99.90;;;;;;5249335;28;20129;-71
2023/07/14 08:06:49;;;;;;;19.75;13.88;;;33.40;99.90;;;;;;5249523;28;20025;-71
2023/07/14 08:09:20;;;;;;;16.08;14.00;;;33.40;99.90;;;;;;5249279;28;20020;-70
2023/07/14 08:11:56;;;;;;;20.13;15.27;;;33.30;99.90;;;;;;5249312;28;20477;-71
2023/07/14 08:14:27;;;;;;;19.83;15.75;;;33.40;99.90;;;;;;5248207;28;20025;-71
2023/07/14 08:16:58;;;;;;;20.08;15.32;;;33.70;99.90;;;;;;5249177;28;20101;-71
2023/07/14 08:19:29;;;;;;;18.83;14.80;;;33.80;99.90;;;;;;5249226;28;20024;-70
2023/07/14 08:22:00;;;;;;;16.55;14.27;;;33.70;99.90;;;;;;5249202;28;20494;-71
2023/07/14 08:24:31;;;;;;;17.35;15.15;;;33.80;99.90;;;;;;5248955;28;20051;-71
2023/07/14 08:27:01;;;;;;;18.90;14.68;;;33.90;99.90;;;;;;5248849;28;20056;-71
2023/07/14 08:29:32;;;;;;;18.73;15.40;;;33.80;99.90;;;;;;5248892;28;20432;-71
2023/07/14 08:32:03;;;;;;;18.83;15.43;;;33.90;99.90;;;;;;5248778;28;20040;-71
2023/07/14 08:34:35;;;;;;;17.63;14.93;;;33.90;99.90;;;;;;5248730;28;20028;-71
2023/07/14 08:37:05;;;;;;;17.40;14.88;;;34.20;99.90;;;;;;5248680;28;20024;-71
2023/07/14 08:39:36;;;;;;;19.13;14.40;;;34.20;99.90;;;;;;5248653;28;20028;-71
2023/07/14 08:42:38;;;;;;;19.75;14.35;;;34.20;99.90;;;;;;5248793;28;20127;-71
2023/07/14 08:45:26;;;;;;;20.33;14.20;;;34.30;99.90;;;;;;5241002;28;20412;-71
2023/07/14 08:48:12;;;;;;;;;;;34.50;99.90;;;;;;5249384;28;20735;-71
2023/07/14 08:50:48;;;;;;;16.52;13.52;;;34.50;99.90;;;;;;5248644;28;19908;-70
2023/07/14 08:53:26;;;;;;;16.63;13.25;;;34.70;99.90;;;;;;5248487;28;20072;-71
2023/07/14 08:56:03;;;;;;;17.48;12.15;;;34.60;99.90;;;;;;5248538;28;20480;-71
2023/07/14 08:58:38;;;;;;;21.02;13.27;;;34.80;99.90;;;;;;5248499;28;20472;-70
2023/07/14 09:01:34;;;;;;;14.48;12.65;;;34.90;99.90;;;;;;5248481;28;20028;-71
2023/07/14 09:04:18;;;;;;;15.18;12.02;;;35.10;99.90;;;;;;5248130;28;20056;-71
2023/07/14 09:06:49;;;;;;;18.30;12.38;;;35.10;99.90;;;;;;5248329;28;20024;-71
2023/07/14 09:09:33;;;;;;;20.98;12.45;;;35.00;99.90;;;;;;5248060;28;20028;-71
2023/07/14 09:12:23;;;;;;;17.63;11.63;;;35.20;99.90;;;;;;5248013;28;20031;-71
2023/07/14 09:14:59;;;;;;;16.30;12.10;;;35.30;99.90;;;;;;5248128;28;20020;-71
2023/07/14 09:18:07;;;;;;;16.55;12.45;;;35.40;99.90;;;;;;5248007;28;20353;-71
2023/07/14 09:20:50;;;;;;;16.88;11.35;;;35.70;99.90;;;;;;5248001;28;20476;-70
2023/07/14 09:24:03;;;;;;;21.90;14.63;;;35.90;99.90;;;;;;5247887;28;20099;-71
2023/07/14 09:26:44;;;;;;;19.13;15.27;;;35.20;99.90;;;;;;5235494;28;20469;-70
2023/07/14 09:29:19;;;;;;;17.08;14.10;;;34.50;99.90;;;;;;5247723;28;20023;-70
2023/07/14 09:32:05;;;;;;;17.95;13.15;;;34.50;99.90;;;;;;5247500;28;20126;-70
2023/07/14 09:34:40;;;;;;;14.32;12.85;;;34.40;99.90;;;;;;5247788;28;20051;-71
2023/07/14 09:37:18;;;;;;;17.60;14.48;;;34.20;99.90;;;;;;5247653;28;20032;-70
2023/07/14 09:40:05;;;;;;;18.90;15.48;;;34.00;99.90;;;;;;5247620;28;20036;-71
2023/07/14 09:42:39;;;;;;;18.17;16.10;;;34.00;99.90;;;;;;5247617;28;20469;-71
2023/07/14 09:45:17;;;;;;;17.70;16.00;;;33.90;99.90;;;;;;5247424;28;20020;-71
2023/07/14 09:48:16;;;;;;;18.85;16.17;;;33.90;99.90;;;;;;5247402;28;20040;-71
2023/07/14 09:51:02;;;;;;;17.25;15.55;;;33.70;99.90;;;;;;5247448;28;20027;-71
2023/07/14 09:53:36;;;;;;;17.40;15.48;;;33.60;99.90;;;;;;5247365;28;20040;-70
2023/07/14 09:56:13;;;;;;;20.45;15.07;;;33.80;99.90;;;;;;5247298;28;20169;-71
2023/07/14 09:58:58;;;;;;;19.05;13.80;;;34.00;99.90;;;;;;5247403;28;20064;-70
2023/07/14 10:01:30;;;;;;;16.25;14.13;;;34.00;99.90;;;;;;5247390;28;20021;-70
2023/07/14 10:04:12;;;;;;;19.55;14.27;;;34.00;99.90;;;;;;5247420;28;20056;-70
2023/07/14 10:06:47;;;;;;;17.75;14.43;;;33.90;99.90;;;;;;5247418;28;20568;-70
2023/07/14 10:09:20;;;;;;;16.48;14.23;;;34.10;99.90;;;;;;5247098;28;20024;-71
2023/07/14 10:11:52;;;;;;;19.63;13.32;;;33.60;99.90;;;;;;5246108;28;20020;-71
2023/07/14 10:14:26;;;;;;;20.98;11.40;;;32.80;99.90;;;;;;5247259;28;20029;-70
2023/07/14 10:16:58;;;;;;;13.98;12.18;;;33.50;99.90;;;;;;5247193;28;20048;-71
2023/07/14 10:19:40;;;;;;;17.33;12.32;;;33.70;99.90;;;;;;5247128;28;20063;-70
2023/07/14 10:22:14;;;;;;;19.33;13.32;;;33.50;99.90;;;;;;5247174;28;20487;-71
2023/07/14 10:24:46;;;;;;;15.07;13.52;;;33.60;99.90;;;;;;5247131;28;20478;-71
2023/07/14 10:27:23;;;;;;;13.82;12.45;;;33.50;99.90;;;;;;5246934;28;20031;-70
2023/07/14 10:30:06;;;;;;;16.17;12.88;;;32.70;99.90;;;;;;5246992;28;20472;-71
2023/07/14 10:33:11;;;;;;;18.88;13.52;;;33.00;99.90;;;;;;5246892;28;20114;-70
2023/07/14 10:35:42;;;;;;;16.30;14.55;;;32.50;99.90;;;;;;5236013;28;20115;-70
2023/07/14 10:38:30;;;;;;;15.45;13.93;;;32.70;99.90;;;;;;5248742;28;20028;-71
2023/07/14 10:41:07;;;;;;;16.42;13.43;;;32.50;99.90;;;;;;5251085;28;20020;-71
2023/07/14 10:44:13;;;;;;;16.15;13.52;;;32.30;99.90;;;;;;5251103;28;20119;-71
2023/07/14 10:46:52;;;;;;;16.73;13.10;;;32.30;99.90;;;;;;5251121;28;20439;-71
2023/07/14 10:49:32;;;;;;;17.40;12.65;;;31.80;99.90;;;;;;5250912;28;20020;-71
2023/07/14 10:52:17;;;;;;;22.45;12.85;;;32.10;99.90;;;;;;5250847;28;20124;-71
2023/07/14 10:54:50;;;;;;;19.67;12.88;;;32.30;99.90;;;;;;5250873;28;20403;-71
2023/07/14 10:57:48;;;;;;;15.73;12.00;;;32.10;99.90;;;;;;5250611;28;20031;-71
2023/07/14 11:00:19;;;;;;;15.82;11.70;;;32.50;99.90;;;;;;5249446;28;20037;-71
2023/07/14 11:02:59;;;;;;;14.80;10.90;;;32.50;99.90;;;;;;5248977;28;20036;-71
2023/07/14 11:05:32;;;;;;;13.52;11.40;;;32.00;99.90;;;;;;5250819;28;20063;-70
2023/07/14 11:08:04;;;;;;;15.85;10.60;;;32.20;99.90;;;;;;5250407;28;20025;-71
2023/07/14 11:11:22;;;;;;;14.57;9.35;;;32.20;99.90;;;;;;5250687;28;20055;-70
2023/07/14 11:14:04;;;;;;;18.15;10.45;;;32.20;99.90;;;;;;5186621;28;20077;-70
2023/07/14 11:16:55;;;;;;;16.48;9.18;;;32.40;99.90;;;;;;5186796;28;20141;-71
2023/07/14 11:19:32;;;;;;;15.13;9.32;;;32.40;99.90;;;;;;5228725;28;20033;-71
2023/07/14 11:22:15;;;;;;;14.52;9.25;;;32.40;99.90;;;;;;5250395;28;20035;-71
2023/07/14 11:25:26;;;;;;;19.98;9.57;;;32.40;99.90;;;;;;5250353;28;20029;-71
2023/07/14 11:28:02;;;;;;;18.70;9.35;;;32.20;99.90;;;;;;5250350;28;20407;-70
2023/07/14 11:30:37;;;;;;;20.55;9.25;;;32.20;99.90;;;;;;5250150;28;20487;-71
2023/07/14 11:33:21;;;;;;;19.45;9.55;;;32.40;99.90;;;;;;5250052;28;20032;-71
2023/07/14 11:35:56;;;;;;;16.02;9.10;;;32.20;99.90;;;;;;5250173;28;20055;-70
2023/07/14 11:38:29;;;;;;;16.05;9.10;;;32.50;99.90;;;;;;5250108;28;20391;-70
2023/07/14 11:41:01;;;;;;;17.15;9.57;;;32.10;99.90;;;;;;5250015;28;20032;-70
2023/07/14 11:43:32;;;;;;;17.00;9.55;;;32.40;99.90;;;;;;5249929;28;20024;-71
2023/07/14 11:46:08;;;;;;;19.02;9.65;;;32.60;99.90;;;;;;5250014;28;20546;-70
2023/07/14 11:48:58;;;;;;;15.38;9.43;;;32.70;99.90;;;;;;5249719;28;20054;-71
2023/07/14 11:51:48;;;;;;;15.10;8.90;;;32.80;99.90;;;;;;5249757;28;20468;-70
2023/07/14 11:54:21;;;;;;;18.63;9.23;;;32.80;99.90;;;;;;5249705;28;20054;-70
2023/07/14 11:56:58;;;;;;;19.48;9.35;;;33.10;99.90;;;;;;5249558;28;20031;-70
2023/07/14 11:59:32;;;;;;;21.25;9.27;;;33.10;99.90;;;;;;5249533;28;20028;-70
2023/07/14 12:02:29;;;;;;;17.33;9.10;;;32.80;99.90;;;;;;5249223;28;20032;-71
2023/07/14 12:05:24;;;;;;;14.20;9.90;;;32.70;99.90;;;;;;5249421;28;20033;-70
2023/07/14 12:08:13;;;;;;;15.07;9.82;;;32.70;99.90;;;;;;5249221;28;20093;-70
2023/07/14 12:10:45;;;;;;;19.67;10.60;;;32.90;99.90;;;;;;5249355;28;20032;-70
2023/07/14 12:13:19;;;;;;;18.15;9.95;;;32.70;99.90;;;;;;5249214;28;20051;-71
2023/07/14 12:15:56;;;;;;;17.40;9.30;;;32.70;99.90;;;;;;5249152;28;20059;-71
2023/07/14 12:18:36;;;;;;;16.55;9.73;;;32.90;99.90;;;;;;5249174;28;20025;-71
2023/07/14 12:21:20;;;;;;;18.77;10.45;;;32.90;99.90;;;;;;5249253;28;20366;-71
2023/07/14 12:24:00;;;;;;;18.27;9.73;;;32.80;99.90;;;;;;5249093;28;20082;-70
2023/07/14 12:26:36;;;;;;;17.60;10.55;;;32.90;99.90;;;;;;5249013;28;20035;-71
2023/07/14 12:29:13;;;;;;;17.35;9.73;;;32.60;99.90;;;;;;5249124;28;20710;-71
2023/07/14 12:31:54;;;;;;;15.85;9.57;;;32.60;99.90;;;;;;5248788;28;20041;-70
2023/07/14 12:34:30;;;;;;;14.98;9.90;;;32.60;99.90;;;;;;5248976;28;20029;-70
2023/07/14 12:37:01;;;;;;;24.98;10.90;;;32.50;99.90;;;;;;5248936;28;20020;-71
2023/07/14 12:39:32;;;;;;;19.10;10.18;;;32.20;99.90;;;;;;5249164;28;20027;-71
2023/07/14 12:42:05;;;;;;;17.70;10.18;;;32.90;99.90;;;;;;5249118;28;20036;-71
2023/07/14 12:44:36;;;;;;;17.42;10.77;;;32.80;99.90;;;;;;5248880;28;20016;-71
2023/07/14 12:47:16;;;;;;;17.45;10.20;;;32.70;99.90;;;;;;5248783;28;20033;-71
2023/07/14 12:49:49;;;;;;;13.80;9.30;;;32.70;99.90;;;;;;5248597;28;20021;-70
2023/07/14 12:52:29;;;;;;;17.77;10.50;;;32.60;99.90;;;;;;5248475;28;20098;-71
2023/07/14 12:55:02;;;;;;;18.48;11.18;;;32.80;99.90;;;;;;5248425;28;20030;-71
2023/07/14 12:57:36;;;;;;;17.00;9.98;;;32.70;99.90;;;;;;5248441;28;20040;-71
2023/07/14 13:00:32;;;;;;;13.95;9.90;;;32.50;99.90;;;;;;5248062;28;20021;-70
2023/07/14 13:03:09;;;;;;;14.15;11.05;;;32.70;99.90;;;;;;5248097;28;20049;-71
2023/07/14 13:05:45;;;;;;;13.80;10.00;;;32.10;99.90;;;;;;5248202;28;20035;-70
2023/07/14 13:08:20;;;;;;;13.68;9.80;;;32.50;99.90;;;;;;5248178;28;20380;-71
2023/07/14 13:10:51;;;;;;;17.33;9.93;;;32.50;99.90;;;;;;5248114;28;20095;-71